createdAt,value
2017-05-22T00:01:11.785Z,8.52
2017-05-22T00:03:38.554Z,8.52
2017-05-22T00:06:05.270Z,7.94
2017-05-22T00:08:31.992Z,7.72
2017-05-22T00:10:58.711Z,14.50
2017-05-22T00:13:25.438Z,7.84
2017-05-22T00:15:52.158Z,7.64
2017-05-22T00:18:18.869Z,7.54
2017-05-22T00:20:45.594Z,7.88
2017-05-22T00:23:12.309Z,8.90
2017-05-22T00:25:39.038Z,8.14
2017-05-22T00:28:05.808Z,7.54
2017-05-22T00:30:32.533Z,7.70
2017-05-22T00:32:59.259Z,7.58
2017-05-22T00:35:25.998Z,8.02
2017-05-22T00:37:52.714Z,8.08
2017-05-22T00:40:19.438Z,8.56
2017-05-22T00:42:46.150Z,7.94
2017-05-22T00:45:12.880Z,9.98
2017-05-22T00:47:39.622Z,9.04
2017-05-22T00:50:06.342Z,9.44
2017-05-22T00:52:33.054Z,9.00
2017-05-22T00:54:59.773Z,9.90
2017-05-22T00:57:26.537Z,9.82
2017-05-22T00:59:53.261Z,9.54
2017-05-22T01:02:19.988Z,9.86
2017-05-22T01:04:46.709Z,10.84
2017-05-22T01:07:13.423Z,10.36
2017-05-22T01:09:40.141Z,11.32
2017-05-22T01:12:06.875Z,10.70
2017-05-22T01:14:33.609Z,9.58
2017-05-22T01:17:00.353Z,10.42
2017-05-22T01:19:27.161Z,10.40
2017-05-22T01:22:07.353Z,12.14
2017-05-22T01:24:34.522Z,9.66
2017-05-22T01:27:01.250Z,10.86
2017-05-22T01:29:27.969Z,10.72
2017-05-22T01:31:54.737Z,10.98
2017-05-22T01:34:21.479Z,10.20
2017-05-22T01:36:48.229Z,10.78
2017-05-22T01:39:15.025Z,10.94
2017-05-22T01:41:41.760Z,11.90
2017-05-22T01:44:09.942Z,9.26
2017-05-22T01:46:37.352Z,10.30
2017-05-22T01:49:04.072Z,10.86
2017-05-22T01:51:30.810Z,10.20
2017-05-22T01:53:57.540Z,11.18
2017-05-22T01:56:24.252Z,9.78
2017-05-22T01:58:51.030Z,10.80
2017-05-22T02:01:17.765Z,10.26
2017-05-22T02:03:44.484Z,9.42
2017-05-22T02:06:11.206Z,11.56
2017-05-22T02:08:37.985Z,11.20
2017-05-22T02:11:04.730Z,11.46
2017-05-22T02:13:31.457Z,12.32
2017-05-22T02:15:58.205Z,15.44
2017-05-22T02:18:24.936Z,11.66
2017-05-22T02:20:51.663Z,16.10
2017-05-22T02:23:18.444Z,11.72
2017-05-22T02:25:45.168Z,11.12
2017-05-22T02:28:11.899Z,12.92
2017-05-22T02:30:38.633Z,11.88
2017-05-22T02:33:05.825Z,12.70
2017-05-22T02:35:32.545Z,12.48
2017-05-22T02:37:59.317Z,11.38
2017-05-22T02:40:26.057Z,12.02
2017-05-22T02:42:52.781Z,11.18
2017-05-22T02:45:19.518Z,11.20
2017-05-22T02:47:46.257Z,11.60
2017-05-22T02:50:12.994Z,13.54
2017-05-22T02:52:39.737Z,11.60
2017-05-22T02:55:06.465Z,12.36
2017-05-22T02:57:33.184Z,12.58
2017-05-22T02:59:59.962Z,11.74
2017-05-22T03:02:26.681Z,10.70
2017-05-22T03:04:53.410Z,12.34
2017-05-22T03:07:20.156Z,13.12
2017-05-22T03:09:46.885Z,14.06
2017-05-22T03:12:13.609Z,12.50
2017-05-22T03:14:40.381Z,11.96
2017-05-22T03:17:07.129Z,13.02
2017-05-22T03:19:33.854Z,11.98
2017-05-22T03:22:00.572Z,10.96
2017-05-22T03:24:27.298Z,12.00
2017-05-22T03:26:54.020Z,13.06
2017-05-22T03:29:20.744Z,12.10
2017-05-22T03:31:47.469Z,12.30
2017-05-22T03:34:14.195Z,12.96
2017-05-22T03:36:40.976Z,12.44
2017-05-22T03:39:07.702Z,12.82
2017-05-22T03:41:34.427Z,12.44
2017-05-22T03:44:01.151Z,13.86
2017-05-22T03:46:27.879Z,11.84
2017-05-22T03:48:54.602Z,12.04
2017-05-22T03:51:21.387Z,14.54
2017-05-22T03:53:48.110Z,13.18
2017-05-22T03:56:14.841Z,12.24
2017-05-22T03:58:41.574Z,13.46
2017-05-22T04:01:08.303Z,12.86
2017-05-22T04:03:35.029Z,14.08
2017-05-22T04:06:01.769Z,13.32
2017-05-22T04:08:28.490Z,13.06
2017-05-22T04:10:55.222Z,13.26
2017-05-22T04:13:21.942Z,12.88
2017-05-22T04:15:48.664Z,13.56
2017-05-22T04:18:15.388Z,14.52
2017-05-22T04:20:42.169Z,12.92
2017-05-22T04:23:08.923Z,12.92
2017-05-22T04:25:35.654Z,12.84
2017-05-22T04:28:02.378Z,14.70
2017-05-22T04:30:29.102Z,14.72
2017-05-22T04:32:55.829Z,13.92
2017-05-22T04:35:22.568Z,13.94
2017-05-22T04:37:49.298Z,14.54
2017-05-22T04:40:16.026Z,14.76
2017-05-22T04:42:42.753Z,15.58
2017-05-22T04:45:09.488Z,15.64
2017-05-22T04:47:36.206Z,14.40
2017-05-22T04:50:02.934Z,13.98
2017-05-22T04:52:29.668Z,15.44
2017-05-22T04:54:56.397Z,14.78
2017-05-22T04:57:23.145Z,17.98
2017-05-22T04:59:49.868Z,14.56
2017-05-22T05:02:16.589Z,15.76
2017-05-22T05:04:43.386Z,21.30
2017-05-22T05:07:10.123Z,16.76
2017-05-22T05:09:36.854Z,16.28
2017-05-22T05:12:03.573Z,16.02
2017-05-22T05:14:30.288Z,13.32
2017-05-22T05:16:57.017Z,15.10
2017-05-22T05:19:23.742Z,14.74
2017-05-22T05:21:50.461Z,15.06
2017-05-22T05:24:17.192Z,16.92
2017-05-22T05:26:43.919Z,13.48
2017-05-22T05:29:10.646Z,15.26
2017-05-22T05:31:38.061Z,15.10
2017-05-22T05:34:04.841Z,13.80
2017-05-22T05:36:31.567Z,16.68
2017-05-22T05:38:58.293Z,15.34
2017-05-22T05:41:25.075Z,13.64
2017-05-22T05:43:51.802Z,14.44
2017-05-22T05:46:18.535Z,13.18
2017-05-22T05:48:45.258Z,14.76
2017-05-22T05:51:11.982Z,13.82
2017-05-22T05:53:38.710Z,14.80
2017-05-22T05:56:05.536Z,17.02
2017-05-22T05:58:32.286Z,12.46
2017-05-22T06:00:59.011Z,15.16
2017-05-22T06:03:25.733Z,15.92
2017-05-22T06:05:52.457Z,12.64
2017-05-22T06:08:19.188Z,14.02
2017-05-22T06:10:45.909Z,13.02
2017-05-22T06:13:12.629Z,14.18
2017-05-22T06:15:39.365Z,13.28
2017-05-22T06:18:06.097Z,15.42
2017-05-22T06:20:33.480Z,14.08
2017-05-22T06:23:00.213Z,13.10
2017-05-22T06:25:26.950Z,13.60
2017-05-22T06:27:53.687Z,13.58
2017-05-22T06:30:20.405Z,14.38
2017-05-22T06:32:47.148Z,13.30
2017-05-22T06:35:13.878Z,12.56
2017-05-22T06:37:40.602Z,13.48
2017-05-22T06:40:07.377Z,12.90
2017-05-22T06:42:34.107Z,14.84
2017-05-22T06:45:00.836Z,13.56
2017-05-22T06:47:27.558Z,12.08
2017-05-22T06:49:54.286Z,12.78
2017-05-22T06:52:21.014Z,16.64
2017-05-22T06:54:47.737Z,13.90
2017-05-22T06:57:14.456Z,12.74
2017-05-22T06:59:41.171Z,11.48
2017-05-22T07:02:07.885Z,10.04
2017-05-22T07:04:34.618Z,12.32
2017-05-22T07:07:01.341Z,17.12
2017-05-22T07:09:28.069Z,11.50
2017-05-22T07:11:54.798Z,13.92
2017-05-22T07:14:21.532Z,10.64
2017-05-22T07:16:48.260Z,11.88
2017-05-22T07:19:14.978Z,12.18
2017-05-22T07:21:41.697Z,13.80
2017-05-22T07:24:08.438Z,16.18
2017-05-22T07:26:35.159Z,13.08
2017-05-22T07:29:01.894Z,11.40
2017-05-22T07:31:28.613Z,10.88
2017-05-22T07:33:55.336Z,10.66
2017-05-22T07:36:22.074Z,9.16
2017-05-22T07:38:48.804Z,10.62
2017-05-22T07:41:15.517Z,9.62
2017-05-22T07:43:42.234Z,8.46
2017-05-22T07:46:08.960Z,9.08
2017-05-22T07:48:35.763Z,9.42
2017-05-22T07:51:02.523Z,8.86
2017-05-22T07:53:29.236Z,9.18
2017-05-22T07:55:55.977Z,8.60
2017-05-22T07:58:22.700Z,9.06
2017-05-22T08:00:49.428Z,8.50
2017-05-22T08:03:16.144Z,8.94
2017-05-22T08:05:42.858Z,8.94
2017-05-22T08:08:09.575Z,9.22
2017-05-22T08:10:36.300Z,9.58
2017-05-22T08:13:03.016Z,9.24
2017-05-22T08:15:29.755Z,9.16
2017-05-22T08:17:56.476Z,8.68
2017-05-22T08:20:23.191Z,8.90
2017-05-22T08:22:49.905Z,9.36
2017-05-22T08:25:16.629Z,8.78
2017-05-22T08:27:43.394Z,9.06
2017-05-22T08:30:10.147Z,8.60
2017-05-22T08:32:36.868Z,8.12
2017-05-22T08:35:03.803Z,8.94
2017-05-22T08:37:30.531Z,9.42
2017-05-22T08:39:57.254Z,9.56
2017-05-22T08:42:23.964Z,9.54
2017-05-22T08:44:50.727Z,9.52
2017-05-22T08:47:17.443Z,12.36
2017-05-22T08:49:44.153Z,9.50
2017-05-22T08:52:10.892Z,9.92
2017-05-22T08:54:37.625Z,9.16
2017-05-22T08:57:04.372Z,10.40
2017-05-22T08:59:31.111Z,8.62
2017-05-22T09:01:57.833Z,7.92
2017-05-22T09:04:24.564Z,12.62
2017-05-22T09:06:51.299Z,11.38
2017-05-22T09:09:18.008Z,9.74
2017-05-22T09:11:44.745Z,10.78
2017-05-22T09:14:11.457Z,9.74
2017-05-22T09:16:38.168Z,9.04
2017-05-22T09:19:04.882Z,11.98
2017-05-22T09:21:31.589Z,9.28
2017-05-22T09:23:58.345Z,9.46
2017-05-22T09:26:25.062Z,9.32
2017-05-22T09:28:51.795Z,9.06
2017-05-22T09:31:18.520Z,10.18
2017-05-22T09:33:45.236Z,9.10
2017-05-22T09:36:11.953Z,8.62
2017-05-22T09:38:38.670Z,9.72
2017-05-22T09:41:05.406Z,13.50
2017-05-22T09:43:32.127Z,11.08
2017-05-22T09:45:58.886Z,49.66
2017-05-22T09:48:25.617Z,17.42
2017-05-22T09:50:52.386Z,10.70
2017-05-22T09:53:19.096Z,12.14
2017-05-22T09:55:45.819Z,8.82
2017-05-22T09:58:12.540Z,13.70
2017-05-22T10:00:39.252Z,15.06
2017-05-22T10:03:06.562Z,8.64
2017-05-22T10:05:33.309Z,10.22
2017-05-22T10:08:00.040Z,8.48
2017-05-22T10:10:26.749Z,9.32
2017-05-22T10:12:53.514Z,8.56
2017-05-22T10:15:20.240Z,9.38
2017-05-22T10:17:46.971Z,11.22
2017-05-22T10:20:13.704Z,12.86
2017-05-22T10:22:40.429Z,9.32
2017-05-22T10:25:07.142Z,9.04
2017-05-22T10:27:33.857Z,9.52
2017-05-22T10:30:00.589Z,7.90
2017-05-22T10:32:27.326Z,8.58
2017-05-22T10:34:54.038Z,9.64
2017-05-22T10:37:20.762Z,10.38
2017-05-22T10:39:47.473Z,9.20
2017-05-22T10:42:14.188Z,10.48
2017-05-22T10:44:40.913Z,8.32
2017-05-22T10:47:07.698Z,10.58
2017-05-22T10:49:34.418Z,8.76
2017-05-22T10:52:01.125Z,9.52
2017-05-22T10:54:27.872Z,10.14
2017-05-22T10:56:54.808Z,9.28
2017-05-22T10:59:21.533Z,9.78
2017-05-22T11:01:48.249Z,8.96
2017-05-22T11:04:14.997Z,8.26
2017-05-22T11:06:41.731Z,8.82
2017-05-22T11:09:08.444Z,9.14
2017-05-22T11:11:35.165Z,8.92
2017-05-22T11:14:01.886Z,8.92
2017-05-22T11:16:28.615Z,8.58
2017-05-22T11:18:55.363Z,10.40
2017-05-22T11:21:22.220Z,9.40
2017-05-22T11:23:48.855Z,9.74
2017-05-22T11:26:15.576Z,9.04
2017-05-22T11:28:42.308Z,9.00
2017-05-22T11:31:09.022Z,7.70
2017-05-22T11:33:35.735Z,7.96
2017-05-22T11:36:02.457Z,12.38
2017-05-22T11:38:29.181Z,10.08
2017-05-22T11:40:55.905Z,8.58
2017-05-22T11:43:22.623Z,8.74
2017-05-22T11:45:49.345Z,12.90
2017-05-22T11:48:16.065Z,9.06
2017-05-22T11:50:42.794Z,9.50
2017-05-22T11:53:09.525Z,8.16
2017-05-22T11:55:36.349Z,8.44
2017-05-22T11:58:03.162Z,8.96
2017-05-22T12:00:30.008Z,9.76
2017-05-22T12:02:56.777Z,8.38
2017-05-22T12:05:23.567Z,9.40
2017-05-22T12:07:50.318Z,8.12
2017-05-22T12:10:17.110Z,9.50
2017-05-22T12:12:43.864Z,8.20
2017-05-22T12:15:10.652Z,7.48
2017-05-22T12:17:37.405Z,9.50
2017-05-22T12:20:04.169Z,11.10
2017-05-22T12:22:30.926Z,7.94
2017-05-22T12:24:57.676Z,9.62
2017-05-22T12:27:24.483Z,7.94
2017-05-22T12:29:51.267Z,7.54
2017-05-22T12:32:18.018Z,7.90
2017-05-22T12:34:45.565Z,7.32
2017-05-22T12:37:12.326Z,7.90
2017-05-22T12:39:39.142Z,9.30
2017-05-22T12:42:05.889Z,9.14
2017-05-22T12:44:32.672Z,8.48
2017-05-22T12:46:59.438Z,7.82
2017-05-22T12:49:26.167Z,9.52
2017-05-22T12:51:52.917Z,9.10
2017-05-22T12:54:19.704Z,8.56
2017-05-22T12:56:46.501Z,9.76
2017-05-22T12:59:13.290Z,8.16
2017-05-22T13:01:40.052Z,8.18
2017-05-22T13:04:06.802Z,8.66
2017-05-22T13:06:33.583Z,8.62
2017-05-22T13:09:00.348Z,7.48
2017-05-22T13:11:27.085Z,7.60
2017-05-22T13:13:53.847Z,7.76
2017-05-22T13:16:20.677Z,7.16
2017-05-22T13:18:48.061Z,7.20
2017-05-22T13:21:14.806Z,6.88
2017-05-22T13:23:41.638Z,7.80
2017-05-22T13:26:08.503Z,8.40
2017-05-22T13:28:35.246Z,18.10
2017-05-22T13:31:02.006Z,7.44
2017-05-22T13:33:28.761Z,7.80
2017-05-22T13:35:55.576Z,6.86
2017-05-22T13:38:22.315Z,6.80
2017-05-22T13:40:49.033Z,7.60
2017-05-22T13:43:15.758Z,8.82
2017-05-22T13:45:42.472Z,10.64
2017-05-22T13:48:09.197Z,7.66
2017-05-22T13:50:35.916Z,8.72
2017-05-22T13:53:02.629Z,7.66
2017-05-22T13:55:29.363Z,11.34
2017-05-22T13:57:56.103Z,7.38
2017-05-22T14:00:22.833Z,7.06
2017-05-22T14:02:49.548Z,7.56
2017-05-22T14:05:16.269Z,7.62
2017-05-22T14:07:42.990Z,7.24
2017-05-22T14:10:09.762Z,7.32
2017-05-22T14:12:36.483Z,7.24
2017-05-22T14:15:03.198Z,7.06
2017-05-22T14:17:29.925Z,6.80
2017-05-22T14:19:56.654Z,7.62
2017-05-22T14:22:23.385Z,10.84
2017-05-22T14:24:50.099Z,8.32
2017-05-22T14:27:16.820Z,8.60
2017-05-22T14:29:43.529Z,7.58
2017-05-22T14:32:10.250Z,7.70
2017-05-22T14:34:36.980Z,8.92
2017-05-22T14:37:03.694Z,8.68
2017-05-22T14:39:30.412Z,8.48
2017-05-22T14:41:57.150Z,8.80
2017-05-22T14:44:23.861Z,8.08
2017-05-22T14:46:50.580Z,9.40
2017-05-22T14:49:17.299Z,9.08
2017-05-22T14:51:44.013Z,8.68
2017-05-22T14:54:10.737Z,7.92
2017-05-22T14:56:39.359Z,7.60
2017-05-22T14:59:06.134Z,8.14
2017-05-22T15:01:32.848Z,13.62
2017-05-22T15:03:59.574Z,7.78
2017-05-22T15:06:26.349Z,11.28
2017-05-22T15:08:53.068Z,8.72
2017-05-22T15:11:19.789Z,8.16
2017-05-22T15:13:46.506Z,9.00
2017-05-22T15:16:13.215Z,8.36
2017-05-22T15:18:39.941Z,7.30
2017-05-22T15:21:06.658Z,8.30
2017-05-22T15:23:33.370Z,8.04
2017-05-22T15:26:00.096Z,8.28
2017-05-22T15:28:26.870Z,8.48
2017-05-22T15:30:53.597Z,8.40
2017-05-22T15:33:20.322Z,8.32
2017-05-22T15:35:47.109Z,10.04
2017-05-22T15:38:13.823Z,7.88
2017-05-22T15:40:40.538Z,8.06
2017-05-22T15:43:07.256Z,9.36
2017-05-22T15:45:33.969Z,8.60
2017-05-22T15:48:00.686Z,8.26
2017-05-22T15:50:27.414Z,9.26
2017-05-22T15:52:54.133Z,8.38
2017-05-22T15:55:20.850Z,8.92
2017-05-22T15:57:47.597Z,8.34
2017-05-22T16:00:14.317Z,8.18
2017-05-22T16:02:41.043Z,8.94
2017-05-22T16:05:07.826Z,19.36
2017-05-22T16:07:34.558Z,11.82
2017-05-22T16:10:01.277Z,9.12
2017-05-22T16:12:28.011Z,21.64
2017-05-22T16:14:54.725Z,9.14
2017-05-22T16:17:21.450Z,19.52
2017-05-22T16:19:48.176Z,9.66
2017-05-22T16:22:14.894Z,9.12
2017-05-22T16:24:41.633Z,12.92
2017-05-22T16:27:08.376Z,9.16
2017-05-22T16:29:35.100Z,8.72
2017-05-22T16:32:01.815Z,9.66
2017-05-22T16:34:28.695Z,8.78
2017-05-22T16:36:55.412Z,8.88
2017-05-22T16:39:22.153Z,9.04
2017-05-22T16:41:48.897Z,10.50
2017-05-22T16:44:15.613Z,8.56
2017-05-22T16:46:42.347Z,9.82
2017-05-22T16:49:09.064Z,7.94
2017-05-22T16:51:35.787Z,8.52
2017-05-22T16:54:02.506Z,8.20
2017-05-22T16:56:29.221Z,9.22
2017-05-22T16:58:55.940Z,8.46
2017-05-22T17:01:22.670Z,10.22
2017-05-22T17:03:50.793Z,8.04
2017-05-22T17:06:17.514Z,10.92
2017-05-22T17:08:45.790Z,9.78
2017-05-22T17:11:12.552Z,9.94
2017-05-22T17:13:39.277Z,10.48
2017-05-22T17:16:06.001Z,9.04
2017-05-22T17:18:32.741Z,9.48
2017-05-22T17:20:59.478Z,9.12
2017-05-22T17:23:26.194Z,9.02
2017-05-22T17:25:52.929Z,8.72
2017-05-22T17:28:19.637Z,7.22
2017-05-22T17:30:46.365Z,16.14
2017-05-22T17:33:13.088Z,6.08
2017-05-22T17:35:39.816Z,11.44
2017-05-22T17:38:06.535Z,12.50
2017-05-22T17:40:33.254Z,4.86
2017-05-22T17:42:59.966Z,5.08
2017-05-22T17:45:26.698Z,5.02
2017-05-22T17:47:53.447Z,4.42
2017-05-22T17:50:20.175Z,5.14
2017-05-22T17:52:46.905Z,3.56
2017-05-22T17:55:13.632Z,8.04
2017-05-22T17:57:40.343Z,3.46
2017-05-22T18:00:07.055Z,3.48
2017-05-22T18:02:33.832Z,4.96
2017-05-22T18:05:00.546Z,2.84
2017-05-22T18:07:27.272Z,7.22
2017-05-22T18:09:54.002Z,2.88
2017-05-22T18:12:20.742Z,3.20
2017-05-22T18:14:47.467Z,3.88
2017-05-22T18:17:14.189Z,4.28
2017-05-22T18:19:40.910Z,5.76
2017-05-22T18:22:07.630Z,4.72
2017-05-22T18:24:36.347Z,5.92
2017-05-22T18:27:03.068Z,7.06
2017-05-22T18:29:29.796Z,6.06
2017-05-22T18:31:56.521Z,6.36
2017-05-22T18:34:23.273Z,5.86
2017-05-22T18:36:51.691Z,6.36
2017-05-22T18:39:18.416Z,4.52
2017-05-22T18:41:45.166Z,6.22
2017-05-22T18:44:11.953Z,7.34
2017-05-22T18:46:38.766Z,4.66
2017-05-22T18:49:06.529Z,6.20
2017-05-22T18:51:33.382Z,5.28
2017-05-22T18:54:00.282Z,6.28
2017-05-22T18:56:27.258Z,3.88
2017-05-22T18:58:54.126Z,3.40
2017-05-22T19:01:20.926Z,3.70
2017-05-22T19:03:47.715Z,5.00
2017-05-22T19:06:14.472Z,4.04
2017-05-22T19:08:41.255Z,4.70
2017-05-22T19:11:07.990Z,4.42
2017-05-22T19:13:34.836Z,5.14
2017-05-22T19:16:01.568Z,6.66
2017-05-22T19:18:28.317Z,5.04
2017-05-22T19:20:55.113Z,3.78
2017-05-22T19:23:21.888Z,3.30
2017-05-22T19:25:48.655Z,3.82
2017-05-22T19:28:15.432Z,3.44
2017-05-22T19:30:42.183Z,2.90
2017-05-22T19:33:08.996Z,2.86
2017-05-22T19:35:35.753Z,2.68
2017-05-22T19:38:02.511Z,3.90
2017-05-22T19:40:29.270Z,5.80
2017-05-22T19:42:56.001Z,4.56
2017-05-22T19:45:22.741Z,5.58
2017-05-22T19:47:49.506Z,4.40
2017-05-22T19:50:16.271Z,5.08
2017-05-22T19:52:43.054Z,5.90
2017-05-22T19:55:09.921Z,7.58
2017-05-22T19:57:36.742Z,6.34
2017-05-22T20:00:03.487Z,7.10
2017-05-22T20:02:30.305Z,8.34
2017-05-22T20:04:57.056Z,6.06
2017-05-22T20:07:23.891Z,5.70
2017-05-22T20:09:50.721Z,4.92
2017-05-22T20:12:17.465Z,5.76
2017-05-22T20:14:44.225Z,5.06
2017-05-22T20:17:11.250Z,4.52
2017-05-22T20:19:37.997Z,5.14
2017-05-22T20:22:04.755Z,6.12
2017-05-22T20:24:31.467Z,6.76
2017-05-22T20:26:58.200Z,9.62
2017-05-22T20:29:24.924Z,5.54
2017-05-22T20:31:51.637Z,4.24
2017-05-22T20:34:18.351Z,3.52
2017-05-22T20:36:45.086Z,6.18
2017-05-22T20:39:11.810Z,5.52
2017-05-22T20:41:38.523Z,4.60
2017-05-22T20:44:05.263Z,4.22
2017-05-22T20:46:31.990Z,7.36
2017-05-22T20:48:58.718Z,4.64
2017-05-22T20:51:25.484Z,4.50
2017-05-22T20:53:52.206Z,4.72
2017-05-22T20:56:18.917Z,7.70
2017-05-22T20:58:45.633Z,3.20
2017-05-22T21:01:12.342Z,3.40
2017-05-22T21:03:39.076Z,2.94
2017-05-22T21:06:05.821Z,4.26
2017-05-22T21:08:32.548Z,4.88
2017-05-22T21:10:59.259Z,3.28
2017-05-22T21:13:26.032Z,2.70
2017-05-22T21:15:52.744Z,2.52
2017-05-22T21:18:19.460Z,3.52
2017-05-22T21:20:46.180Z,5.52
2017-05-22T21:23:12.896Z,3.68
2017-05-22T21:25:39.629Z,2.26
2017-05-22T21:28:06.345Z,1.20
2017-05-22T21:30:33.064Z,1.98
2017-05-22T21:32:59.781Z,1.72
2017-05-22T21:35:26.493Z,3.26
2017-05-22T21:37:53.207Z,3.36
2017-05-22T21:40:19.925Z,5.50
2017-05-22T21:42:46.674Z,2.00
2017-05-22T21:45:13.394Z,2.38
2017-05-22T21:47:40.113Z,2.90
2017-05-22T21:50:06.830Z,4.12
2017-05-22T21:52:33.572Z,5.32
2017-05-22T21:55:00.297Z,3.12
2017-05-22T21:57:27.010Z,4.24
2017-05-22T21:59:53.733Z,3.74
2017-05-22T22:02:20.468Z,3.82
2017-05-22T22:04:47.191Z,4.76
2017-05-22T22:07:13.910Z,4.48
2017-05-22T22:09:40.624Z,5.56
2017-05-22T22:12:07.336Z,3.58
2017-05-22T22:14:34.053Z,5.56
2017-05-22T22:17:00.764Z,3.68
2017-05-22T22:19:27.481Z,4.20
2017-05-22T22:21:54.228Z,3.00
2017-05-22T22:24:20.950Z,3.06
2017-05-22T22:26:47.685Z,4.50
2017-05-22T22:29:14.400Z,6.30
2017-05-22T22:31:41.128Z,8.22
2017-05-22T22:34:07.869Z,4.58
2017-05-22T22:36:34.586Z,5.14
2017-05-22T22:39:01.298Z,5.96
2017-05-22T22:41:28.050Z,2.90
2017-05-22T22:43:54.768Z,3.32
2017-05-22T22:46:21.472Z,2.12
2017-05-22T22:48:48.238Z,9.60
2017-05-22T22:51:14.952Z,2.08
2017-05-22T22:53:41.673Z,3.20
2017-05-22T22:56:08.398Z,3.16
2017-05-22T22:58:35.119Z,2.18
2017-05-22T23:01:01.833Z,1.74
2017-05-22T23:03:28.555Z,1.58
2017-05-22T23:05:55.271Z,1.92
2017-05-22T23:08:21.987Z,2.24
2017-05-22T23:10:48.697Z,2.92
2017-05-22T23:13:15.422Z,1.68
2017-05-22T23:15:42.144Z,2.62
2017-05-22T23:18:08.868Z,1.66
2017-05-22T23:20:35.589Z,2.66
2017-05-22T23:23:02.304Z,2.14
2017-05-22T23:25:29.021Z,2.78
2017-05-22T23:27:55.732Z,1.94
2017-05-22T23:30:22.453Z,4.44
2017-05-22T23:32:49.157Z,2.62
2017-05-22T23:35:15.878Z,2.06
2017-05-22T23:37:42.599Z,2.84
2017-05-22T23:40:09.345Z,5.50
2017-05-22T23:42:36.066Z,4.32
2017-05-22T23:45:02.789Z,2.30
2017-05-22T23:47:29.510Z,3.52
2017-05-22T23:49:56.221Z,2.64
2017-05-22T23:52:22.944Z,2.70
2017-05-22T23:54:49.759Z,2.54
2017-05-22T23:57:16.482Z,3.34
2017-05-22T23:59:43.202Z,2.38
